Time;durP1;ratioP1;P1;durP2;ratioP2;P2;SDS_P1;SDS_P2;PMS_P1;PMS_P2;Temp;Humidity;BMP_temperature;BMP_pressure;BME280_temperature;BME280_humidity;BME280_pressure;Samples;Min_cycle;Max_cycle;Signal;HPM_P1;HPM_P2
2023/08/02 00:01:47;;;;;;;6.75;1.50;;;;;;;16.44;78.33;92212.97;2041498;70;20151;-83
2023/08/02 00:04:14;;;;;;;3.70;1.52;;;;;;;16.29;78.75;92208.25;2038157;70;20270;-84
2023/08/02 00:06:40;;;;;;;4.13;1.75;;;;;;;15.65;82.57;92201.88;2041299;70;20585;-83
2023/08/02 00:09:06;;;;;;;7.05;1.70;;;;;;;15.86;81.84;92226.72;2041341;70;20598;-84
2023/08/02 00:11:35;;;;;;;3.17;1.63;;;;;;;16.01;82.02;92222.25;2038189;70;20211;-83
2023/08/02 00:14:00;;;;;;;4.90;1.50;;;;;;;16.14;81.49;92220.53;2041203;70;20186;-84
2023/08/02 00:16:26;;;;;;;4.68;1.38;;;;;;;16.22;80.10;92224.38;2038299;70;20602;-84
2023/08/02 00:18:53;;;;;;;2.58;1.30;;;;;;;16.25;80.12;92236.50;2041510;70;20139;-82
2023/08/02 00:21:22;;;;;;;5.70;1.35;;;;;;;16.30;79.53;92232.41;2041286;70;20200;-85
2023/08/02 00:23:48;;;;;;;5.13;1.42;;;;;;;16.24;79.42;92227.25;2041082;70;20151;-84
2023/08/02 00:26:15;;;;;;;4.55;1.30;;;;;;;16.16;79.47;92220.59;2037910;70;20489;-84
2023/08/02 00:28:45;;;;;;;4.10;1.48;;;;;;;16.13;78.49;92213.41;2041490;70;20201;-84
2023/08/02 00:31:11;;;;;;;2.47;1.48;;;;;;;16.06;78.79;92211.75;2038211;70;20186;-84
2023/08/02 00:33:36;;;;;;;3.28;1.30;;;;;;;16.10;79.00;92209.78;2041302;70;20143;-82
2023/08/02 00:36:02;;;;;;;5.78;1.40;;;;;;;16.09;78.95;92214.00;2041449;70;20151;-83
2023/08/02 00:38:29;;;;;;;7.15;1.58;;;;;;;15.98;79.35;92212.91;2038048;70;20151;-82
2023/08/02 00:41:01;;;;;;;3.67;1.55;;;;;;;15.88;79.88;92200.50;2037857;70;20155;-83
2023/08/02 00:43:27;;;;;;;3.72;1.40;;;;;;;15.78;80.68;92197.34;2037742;70;20219;-83
2023/08/02 00:45:52;;;;;;;3.10;1.30;;;;;;;15.82;80.27;92201.03;2041161;70;20193;-84
2023/08/02 00:48:19;;;;;;;3.75;1.38;;;;;;;15.74;80.19;92195.09;2041315;70;20171;-82
2023/08/02 00:50:47;;;;;;;4.50;1.50;;;;;;;15.78;79.48;92203.75;2037819;70;20532;-83
2023/08/02 00:53:12;;;;;;;2.90;1.40;;;;;;;15.73;79.00;92200.03;2041264;70;20155;-83
2023/08/02 00:55:39;;;;;;;6.32;1.75;;;;;;;15.70;79.21;92207.03;2037490;70;20643;-83
2023/08/02 00:58:04;;;;;;;4.25;1.38;;;;;;;15.68;79.06;92209.81;2038176;70;20652;-83
2023/08/02 01:00:30;;;;;;;7.28;1.40;;;;;;;15.62;78.81;92206.72;2041349;70;20239;-82
2023/08/02 01:02:56;;;;;;;6.65;1.45;;;;;;;15.55;79.39;92212.84;2041510;70;20258;-83
2023/08/02 01:05:28;;;;;;;3.42;1.33;;;;;;;15.51;79.60;92213.44;2038087;70;20147;-83
2023/08/02 01:08:03;;;;;;;7.68;1.60;;;;;;;15.46;80.32;92209.72;2041059;70;20277;-84
2023/08/02 01:10:43;;;;;;;2.90;1.55;;;;;;;15.51;79.70;92214.16;2041470;70;20151;-83
2023/08/02 01:13:13;;;;;;;5.18;1.52;;;;;;;15.51;79.56;92205.66;2041416;70;20238;-83
2023/08/02 01:15:40;;;;;;;7.45;1.77;;;;;;;15.56;79.87;92205.78;2037385;70;20535;-84
2023/08/02 01:18:05;;;;;;;5.90;1.80;;;;;;;15.55;79.94;92193.72;2040856;70;20151;-84
2023/08/02 01:20:31;;;;;;;4.68;1.50;;;;;;;15.51;79.89;92187.91;2034798;70;20174;-85
2023/08/02 01:22:57;;;;;;;3.03;1.40;;;;;;;15.44;80.40;92194.75;2037499;70;20644;-84
2023/08/02 01:25:30;;;;;;;5.25;1.33;;;;;;;15.39;80.21;92188.19;2035019;70;20586;-82
2023/08/02 01:28:00;;;;;;;3.30;1.52;;;;;;;15.34;80.91;92180.94;2037602;70;20144;-86
2023/08/02 01:30:30;;;;;;;5.75;1.55;;;;;;;15.40;80.64;92180.44;2037193;70;20178;-86
2023/08/02 01:32:57;;;;;;;3.83;1.50;;;;;;;15.49;79.98;92180.06;2037147;70;20183;-84
2023/08/02 01:35:23;;;;;;;9.57;1.45;;;;;;;15.46;80.38;92178.53;2037693;70;20341;-81
2023/08/02 01:37:49;;;;;;;1.70;1.38;;;;;;;15.43;80.01;92176.28;2037427;70;20190;-83
2023/08/02 01:40:14;;;;;;;4.15;1.42;;;;;;;15.47;79.34;92153.72;2041187;70;20218;-80
2023/08/02 01:42:40;;;;;;;7.10;1.35;;;;;;;15.49;79.76;92157.38;2040113;70;20151;-82
2023/08/02 01:45:06;;;;;;;7.95;1.60;;;;;;;15.48;80.37;92155.16;2037359;70;20299;-79
2023/08/02 01:47:32;;;;;;;2.95;1.48;;;;;;;15.51;80.21;92151.75;2040764;70;20187;-83
2023/08/02 01:49:57;;;;;;;4.93;1.40;;;;;;;15.57;79.44;92150.50;2037853;70;20597;-83
2023/08/02 01:52:23;;;;;;;4.80;1.65;;;;;;;15.55;80.32;92133.44;2041127;70;20239;-82
2023/08/02 01:54:48;;;;;;;8.85;1.50;;;;;;;15.65;78.92;92134.50;2037860;70;20195;-84
2023/08/02 01:57:14;;;;;;;10.15;1.52;;;;;;;15.66;79.50;92129.56;2037592;70;20163;-83
2023/08/02 01:59:40;;;;;;;5.63;1.60;;;;;;;15.63;79.94;92130.88;2037331;70;20207;-82
2023/08/02 02:02:05;;;;;;;3.53;1.33;;;;;;;15.64;79.37;92129.50;2037831;70;20596;-82
2023/08/02 02:04:31;;;;;;;6.38;1.60;;;;;;;15.63;79.61;92131.59;2038060;70;20539;-83
2023/08/02 02:06:57;;;;;;;6.40;1.60;;;;;;;15.59;79.89;92114.44;2041068;70;20151;-83
2023/08/02 02:09:22;;;;;;;5.05;1.70;;;;;;;15.66;79.83;92121.03;2041117;70;20147;-84
2023/08/02 02:11:48;;;;;;;3.67;1.90;;;;;;;15.66;79.37;92112.53;2037685;70;20178;-82
2023/08/02 02:14:14;;;;;;;2.40;1.70;;;;;;;15.61;79.54;92117.31;2037697;70;20637;-82
2023/08/02 02:16:40;;;;;;;5.60;1.60;;;;;;;15.61;79.33;92125.09;2041478;70;20215;-84
2023/08/02 02:19:05;;;;;;;4.93;1.52;;;;;;;15.61;78.62;92120.16;2036350;70;20171;-82
2023/08/02 02:21:31;;;;;;;3.25;1.33;;;;;;;15.51;78.65;92125.50;2039869;70;20146;-85
2023/08/02 02:23:56;;;;;;;3.97;1.38;;;;;;;15.47;78.59;92133.88;2038376;70;20175;-82
2023/08/02 02:26:23;;;;;;;2.80;1.50;;;;;;;15.42;78.90;92124.50;2041819;70;20139;-83
2023/08/02 02:28:49;;;;;;;4.82;1.30;;;;;;;15.41;78.19;92120.22;2038069;70;20502;-82
2023/08/02 02:31:15;;;;;;;3.03;1.48;;;;;;;15.37;78.34;92119.34;2043163;70;20151;-83
2023/08/02 02:33:40;;;;;;;5.45;1.63;;;;;;;15.32;78.82;92115.66;2045907;70;20238;-85
2023/08/02 02:36:06;;;;;;;5.18;1.58;;;;;;;15.30;78.08;92124.06;2042826;70;20509;-83
2023/08/02 02:38:32;;;;;;;5.43;1.45;;;;;;;15.33;78.22;92122.06;2038462;70;20155;-82
2023/08/02 02:40:58;;;;;;;1.90;1.30;;;;;;;15.28;78.37;92118.34;2038600;70;20144;-83
2023/08/02 02:43:24;;;;;;;7.22;1.83;;;;;;;15.22;79.30;92126.66;2041579;70;20197;-83
2023/08/02 02:45:50;;;;;;;4.38;1.38;;;;;;;15.17;78.92;92111.63;2041794;70;20148;-82
2023/08/02 02:48:15;;;;;;;3.40;1.63;;;;;;;15.20;79.60;92123.75;2038583;70;20190;-82
2023/08/02 02:50:41;;;;;;;11.40;1.55;;;;;;;15.08;79.20;92095.72;2038339;70;20223;-82
2023/08/02 02:53:06;;;;;;;3.63;1.63;;;;;;;15.22;79.25;92118.88;2041788;70;20160;-83
2023/08/02 02:55:32;;;;;;;3.95;1.60;;;;;;;15.08;78.90;92114.81;2038468;70;20159;-84
2023/08/02 02:57:58;;;;;;;5.82;1.90;;;;;;;15.08;78.93;92103.50;2041788;70;20158;-84
2023/08/02 03:00:23;;;;;;;5.07;1.92;;;;;;;15.05;79.00;92101.97;2041552;70;20166;-83
2023/08/02 03:02:50;;;;;;;5.03;1.60;;;;;;;15.01;79.21;92096.88;2041906;70;20648;-83
2023/08/02 03:05:16;;;;;;;11.90;1.98;;;;;;;14.97;78.60;92086.13;2041782;70;20625;-85
2023/08/02 03:07:41;;;;;;;9.70;1.88;;;;;;;14.87;79.21;92077.25;2038442;70;20143;-85
2023/08/02 03:10:07;;;;;;;4.03;1.85;;;;;;;14.78;80.08;92086.13;2041731;70;20598;-82
2023/08/02 03:12:33;;;;;;;2.28;1.70;;;;;;;14.68;80.45;92083.66;2035811;70;20276;-85
2023/08/02 03:14:59;;;;;;;6.55;1.92;;;;;;;14.77;79.92;92090.34;2038249;70;20259;-84
2023/08/02 03:17:24;;;;;;;6.55;1.52;;;;;;;14.79;79.46;92105.31;2041733;70;20140;-85
2023/08/02 03:19:50;;;;;;;4.70;1.48;;;;;;;14.79;80.03;92107.41;2041792;70;20142;-83
2023/08/02 03:22:15;;;;;;;3.60;1.77;;;;;;;14.81;80.18;92105.38;2038393;70;20227;-81
2023/08/02 03:24:41;;;;;;;6.88;1.70;;;;;;;14.89;79.28;92116.28;2035710;70;20145;-84
2023/08/02 03:27:06;;;;;;;2.97;1.60;;;;;;;14.87;79.99;92121.88;2041544;70;20215;-84
2023/08/02 03:29:32;;;;;;;6.30;1.60;;;;;;;14.91;79.57;92122.75;2041608;70;20170;-82
2023/08/02 03:31:58;;;;;;;7.15;1.70;;;;;;;14.93;80.31;92116.41;2041756;70;20135;-84
2023/08/02 03:34:23;;;;;;;6.70;1.77;;;;;;;14.99;79.94;92117.38;2041707;70;20163;-85
2023/08/02 03:36:49;;;;;;;6.45;1.83;;;;;;;14.89;79.95;92116.28;2041709;70;20143;-83
2023/08/02 03:39:14;;;;;;;6.82;2.10;;;;;;;15.01;79.06;92113.88;2041669;70;20533;-84
2023/08/02 03:41:40;;;;;;;6.57;2.00;;;;;;;15.02;78.63;92111.75;2041658;70;20620;-85
2023/08/02 03:44:05;;;;;;;4.65;1.75;;;;;;;15.03;79.16;92110.38;2041589;70;20181;-85
2023/08/02 03:46:31;;;;;;;4.32;1.70;;;;;;;15.02;79.17;92117.44;2041708;70;20244;-85
2023/08/02 03:48:57;;;;;;;1.90;1.70;;;;;;;15.05;78.47;92102.69;2041717;70;20144;-85
2023/08/02 03:51:22;;;;;;;8.82;1.90;;;;;;;15.08;78.62;92095.72;2041875;70;20518;-85
2023/08/02 03:53:48;;;;;;;4.93;1.70;;;;;;;15.14;78.41;92098.03;2041712;70;20593;-85
2023/08/02 03:56:15;;;;;;;6.78;1.80;;;;;;;15.17;79.14;92088.22;2041612;70;20154;-80
2023/08/02 03:58:40;;;;;;;5.15;1.70;;;;;;;15.09;79.53;92088.66;2041724;70;20223;-85
2023/08/02 04:01:06;;;;;;;7.18;1.83;;;;;;;15.12;79.87;92089.44;2041674;70;20163;-85
2023/08/02 04:03:32;;;;;;;5.28;1.60;;;;;;;15.15;78.92;92079.63;2041728;70;20163;-85
2023/08/02 04:05:57;;;;;;;2.08;1.50;;;;;;;15.15;79.21;92076.78;2041596;70;20143;-84
2023/08/02 04:08:23;;;;;;;4.82;1.90;;;;;;;15.09;78.30;92087.94;2041761;70;20186;-85
2023/08/02 04:10:48;;;;;;;4.82;1.90;;;;;;;14.80;78.33;92083.34;2041709;70;20639;-85
2023/08/02 04:13:14;;;;;;;4.72;1.63;;;;;;;14.98;78.48;92059.25;2041510;70;20139;-84
2023/08/02 04:15:39;;;;;;;3.08;1.75;;;;;;;15.02;78.13;92055.81;2041818;70;20135;-85
2023/08/02 04:18:05;;;;;;;6.43;1.88;;;;;;;14.90;78.50;92053.28;2041838;70;20147;-85
2023/08/02 04:20:31;;;;;;;3.83;1.80;;;;;;;15.03;78.61;92045.19;2041628;70;20151;-85
2023/08/02 04:22:56;;;;;;;2.58;1.45;;;;;;;15.13;77.78;92060.44;2041662;70;20159;-86
2023/08/02 04:25:22;;;;;;;2.47;1.55;;;;;;;15.20;78.65;92059.25;2042436;70;20159;-85
2023/08/02 04:27:48;;;;;;;4.05;1.65;;;;;;;15.29;78.21;92059.53;2045934;70;20136;-86
2023/08/02 04:30:14;;;;;;;3.30;1.60;;;;;;;15.32;78.35;92055.38;2044371;70;20170;-85
2023/08/02 04:32:39;;;;;;;5.00;1.77;;;;;;;15.26;79.54;92055.91;2042862;70;20143;-87
2023/08/02 04:35:05;;;;;;;2.33;1.70;;;;;;;15.27;79.87;92048.13;2038631;70;20153;-87
2023/08/02 04:37:31;;;;;;;4.03;1.60;;;;;;;15.21;79.46;92049.38;2041787;70;20159;-86
2023/08/02 04:39:56;;;;;;;4.25;1.65;;;;;;;15.38;79.40;92053.47;2041829;70;20474;-83
2023/08/02 04:42:25;;;;;;;3.97;1.63;;;;;;;15.50;77.98;92045.34;2042011;70;20135;-82
2023/08/02 04:44:51;;;;;;;5.43;1.92;;;;;;;15.20;77.51;92042.25;2041891;70;20226;-87
2023/08/02 04:47:16;;;;;;;5.32;1.60;;;;;;;15.38;78.12;92041.41;2044264;70;20143;-80
2023/08/02 04:49:42;;;;;;;3.28;1.73;;;;;;;15.45;77.16;92032.44;2044256;70;20135;-87
2023/08/02 04:52:10;;;;;;;3.50;1.70;;;;;;;15.56;77.28;92022.13;2041695;70;20143;-85
2023/08/02 04:54:36;;;;;;;5.85;1.80;;;;;;;15.61;78.09;92012.34;2041651;70;20143;-88
2023/08/02 04:57:01;;;;;;;6.18;1.60;;;;;;;15.66;77.79;92008.28;2041733;70;20146;-91
2023/08/02 04:59:27;;;;;;;4.72;1.83;;;;;;;15.71;78.02;92003.44;2041590;70;20139;-86
2023/08/02 05:01:52;;;;;;;5.10;1.52;;;;;;;15.71;76.03;92011.97;2044863;70;20155;-91
2023/08/02 05:04:18;;;;;;;4.40;1.98;;;;;;;15.62;77.69;92002.44;2044903;70;20143;-86
2023/08/02 05:06:44;;;;;;;2.28;1.52;;;;;;;15.63;78.33;92006.75;2045130;70;20609;-89
2023/08/02 05:09:09;;;;;;;4.32;1.70;;;;;;;15.64;79.03;92018.84;2044948;70;20240;-90
2023/08/02 05:11:37;;;;;;;3.63;1.52;;;;;;;15.61;78.46;92008.78;2045286;70;20131;-88
2023/08/02 05:14:03;;;;;;;3.05;1.50;;;;;;;15.51;79.13;92014.88;2045966;70;20150;-90
2023/08/02 05:16:29;;;;;;;6.47;2.00;;;;;;;15.61;79.36;92018.03;2045114;70;20155;-89
2023/08/02 05:18:55;;;;;;;7.78;1.50;;;;;;;15.66;78.95;92016.06;2044895;70;20208;-89
2023/08/02 05:21:20;;;;;;;3.13;1.60;;;;;;;15.70;78.60;92019.03;2044626;70;20135;-84
2023/08/02 05:23:46;;;;;;;2.90;1.52;;;;;;;15.78;78.56;92029.91;2044695;70;20206;-87
2023/08/02 05:26:13;;;;;;;5.85;1.70;;;;;;;15.63;79.84;92034.41;2044764;70;20139;-87
2023/08/02 05:28:39;;;;;;;2.35;1.50;;;;;;;15.72;79.42;92044.66;2045335;70;20159;-87
2023/08/02 05:31:12;;;;;;;2.92;1.70;;;;;;;15.73;78.63;92046.81;2045034;70;20222;-89
2023/08/02 05:33:39;;;;;;;5.85;2.40;;;;;;;15.69;78.53;92043.84;2044943;70;20142;-88
2023/08/02 05:36:05;;;;;;;3.13;2.03;;;;;;;15.72;77.05;92034.03;2046339;70;20238;-86
2023/08/02 05:38:30;;;;;;;3.63;1.92;;;;;;;15.82;77.84;92049.91;2046329;70;20155;-88
2023/08/02 05:41:01;;;;;;;5.15;2.00;;;;;;;15.75;77.90;92046.16;2045893;70;20154;-89
2023/08/02 05:43:26;;;;;;;6.53;1.98;;;;;;;15.82;78.03;92038.56;2045377;70;20273;-87
2023/08/02 05:45:52;;;;;;;3.25;1.60;;;;;;;15.87;78.89;92023.81;2045373;70;20658;-84
2023/08/02 05:48:18;;;;;;;6.53;1.88;;;;;;;15.85;78.33;92015.25;2045282;70;20621;-88
2023/08/02 05:50:44;;;;;;;6.25;2.47;;;;;;;15.79;78.33;92023.56;2045388;70;20158;-88
2023/08/02 05:53:09;;;;;;;3.78;1.98;;;;;;;16.03;77.87;92020.75;2045626;70;20146;-89
2023/08/02 05:55:35;;;;;;;3.50;1.98;;;;;;;16.19;78.39;92024.06;2045505;70;20154;-87
2023/08/02 05:58:00;;;;;;;7.28;1.88;;;;;;;16.31;78.14;92006.66;2045794;70;20206;-90
2023/08/02 06:00:26;;;;;;;4.63;2.15;;;;;;;16.35;77.87;92020.25;2042087;70;20613;-90
2023/08/02 06:02:51;;;;;;;5.00;2.83;;;;;;;16.37;76.63;92023.88;2046546;70;20142;-90
2023/08/02 06:05:17;;;;;;;6.97;2.78;;;;;;;16.30;76.15;92027.19;2046323;70;20246;-90
2023/08/02 06:07:43;;;;;;;3.72;2.15;;;;;;;16.00;76.44;92019.97;2046779;70;20139;-89
2023/08/02 06:10:09;;;;;;;3.58;2.08;;;;;;;16.40;76.29;92014.03;2046141;70;20193;-88
2023/08/02 06:12:34;;;;;;;4.57;2.00;;;;;;;16.52;75.96;92007.94;2045764;70;20325;-90
2023/08/02 06:15:00;;;;;;;4.20;1.90;;;;;;;16.79;75.25;92022.91;2045299;70;20532;-90
2023/08/02 06:17:26;;;;;;;5.78;2.08;;;;;;;16.63;74.92;92015.38;2046874;70;20111;-88
2023/08/02 06:19:52;;;;;;;4.05;1.83;;;;;;;16.69;74.32;92015.53;2052836;70;20141;-89
2023/08/02 06:22:17;;;;;;;1.77;1.60;;;;;;;16.69;73.43;92009.84;2045818;70;20230;-84
2023/08/02 06:24:43;;;;;;;4.20;1.75;;;;;;;16.93;73.75;92023.28;2046341;70;20142;-91
2023/08/02 06:27:10;;;;;;;3.95;1.85;;;;;;;16.75;74.20;92020.69;2045462;70;20143;-90
2023/08/02 06:29:36;;;;;;;4.15;1.88;;;;;;;16.75;74.68;92024.25;2046073;70;20147;-90
2023/08/02 06:32:01;;;;;;;5.25;2.00;;;;;;;16.86;74.58;92016.72;2045484;70;20246;-90
2023/08/02 06:34:27;;;;;;;5.00;1.70;;;;;;;16.88;74.88;92028.16;2045706;70;20236;-90
2023/08/02 06:36:52;;;;;;;3.83;1.70;;;;;;;16.93;73.51;92020.44;2045877;70;20139;-91
2023/08/02 06:39:20;;;;;;;3.13;1.95;;;;;;;16.70;73.50;92011.28;2045926;70;20155;-88
2023/08/02 06:41:45;;;;;;;3.65;1.73;;;;;;;16.95;72.93;92018.41;2045393;70;20141;-88
2023/08/02 06:44:13;;;;;;;4.65;2.05;;;;;;;17.25;74.00;92012.03;2041637;70;20169;-87
2023/08/02 06:46:40;;;;;;;6.00;1.60;;;;;;;17.32;72.39;92007.22;2045516;70;20182;-85
2023/08/02 06:49:06;;;;;;;2.80;1.70;;;;;;;17.22;71.33;91999.16;2045473;70;20139;-88
2023/08/02 06:51:31;;;;;;;3.35;2.00;;;;;;;17.36;73.39;92005.19;2045260;70;20232;-87
2023/08/02 06:53:57;;;;;;;4.55;1.77;;;;;;;17.37;72.97;92000.25;2045135;70;20149;-86
2023/08/02 06:56:23;;;;;;;4.57;1.60;;;;;;;17.42;72.05;91991.13;2045124;70;20150;-86
2023/08/02 06:58:49;;;;;;;2.85;1.73;;;;;;;17.64;71.68;91995.88;2044861;70;20520;-86
2023/08/02 07:01:19;;;;;;;3.15;1.70;;;;;;;17.61;70.87;92003.66;2045005;70;20159;-86
2023/08/02 07:03:45;;;;;;;2.60;1.70;;;;;;;17.49;72.92;91998.41;2045023;70;20159;-86
2023/08/02 07:06:16;;;;;;;2.33;1.70;;;;;;;17.62;72.35;91990.16;2044927;70;20150;-83
2023/08/02 07:08:42;;;;;;;3.22;1.70;;;;;;;17.64;70.88;91996.63;2045262;70;20143;-87
2023/08/02 07:11:08;;;;;;;5.40;1.90;;;;;;;17.58;72.90;92002.16;2039727;70;20192;-86
2023/08/02 07:13:38;;;;;;;6.15;1.70;;;;;;;17.90;72.87;91987.97;2041716;70;20171;-83
2023/08/02 07:16:04;;;;;;;4.25;1.90;;;;;;;17.91;72.98;91986.56;2042061;70;20155;-86
2023/08/02 07:18:31;;;;;;;3.25;1.88;;;;;;;17.84;73.63;92002.09;2041954;70;20258;-86
2023/08/02 07:20:56;;;;;;;3.70;2.00;;;;;;;17.78;73.17;91991.28;2038705;70;20148;-86
2023/08/02 07:23:22;;;;;;;3.78;1.60;;;;;;;17.94;72.15;91993.06;2041720;70;20156;-87
2023/08/02 07:25:48;;;;;;;1.90;1.60;;;;;;;17.94;72.56;92005.16;2041893;70;20151;-86
2023/08/02 07:28:14;;;;;;;7.65;1.80;;;;;;;18.00;71.81;92008.13;2041960;70;20183;-88
2023/08/02 07:30:39;;;;;;;4.18;1.80;;;;;;;18.18;71.29;92013.50;2041602;70;20155;-87
2023/08/02 07:33:05;;;;;;;3.10;2.00;;;;;;;18.20;71.95;92010.00;2041750;70;20199;-86
2023/08/02 07:35:35;;;;;;;3.67;1.90;;;;;;;18.25;70.94;92000.88;2041944;70;20562;-87
2023/08/02 07:38:01;;;;;;;4.75;2.10;;;;;;;18.26;70.03;91990.91;2044932;70;20147;-88
2023/08/02 07:40:26;;;;;;;5.30;2.05;;;;;;;18.40;69.69;91984.78;2045107;70;20150;-88
2023/08/02 07:42:52;;;;;;;4.65;1.80;;;;;;;18.52;69.51;91981.47;2045159;70;20139;-87
2023/08/02 07:45:17;;;;;;;3.42;1.67;;;;;;;18.61;71.13;91988.78;2045006;70;20139;-86
2023/08/02 07:47:43;;;;;;;5.13;1.90;;;;;;;18.45;72.23;91992.00;2044523;70;20147;-83
2023/08/02 07:50:09;;;;;;;5.38;2.13;;;;;;;18.45;72.66;92002.69;2043483;70;20154;-84
2023/08/02 07:52:35;;;;;;;2.45;1.73;;;;;;;18.64;70.46;91998.78;2041745;70;20191;-85
2023/08/02 07:55:01;;;;;;;3.60;2.00;;;;;;;18.75;68.98;91991.22;2041855;70;20155;-87
2023/08/02 07:57:31;;;;;;;3.80;1.80;;;;;;;18.50;66.43;92001.34;2042013;70;20580;-85
2023/08/02 07:59:57;;;;;;;2.88;1.98;;;;;;;18.58;66.81;92003.66;2041466;70;20172;-86
2023/08/02 08:02:27;;;;;;;3.13;2.00;;;;;;;18.75;66.63;92011.88;2041755;70;20149;-84
2023/08/02 08:04:54;;;;;;;5.57;1.95;;;;;;;18.83;67.25;92008.47;2044863;70;20163;-85
2023/08/02 08:07:20;;;;;;;7.50;1.95;;;;;;;18.88;68.04;92014.97;2045002;70;20202;-86
2023/08/02 08:09:45;;;;;;;2.47;1.70;;;;;;;18.78;68.81;92013.38;2045049;70;20234;-87
2023/08/02 08:12:11;;;;;;;3.30;1.70;;;;;;;18.84;69.69;92012.75;2045202;70;20238;-86
2023/08/02 08:14:37;;;;;;;4.20;1.95;;;;;;;18.98;70.99;92007.31;2044967;70;20528;-86
2023/08/02 08:17:03;;;;;;;6.53;1.80;;;;;;;19.15;70.20;92016.16;2039212;70;20205;-87
2023/08/02 08:19:31;;;;;;;3.63;1.80;;;;;;;19.19;69.29;92013.38;2045291;70;20198;-87
2023/08/02 08:21:57;;;;;;;3.88;1.73;;;;;;;19.23;69.47;92016.31;2045273;70;20604;-86
2023/08/02 08:24:22;;;;;;;2.83;1.73;;;;;;;19.60;68.80;92017.69;2044591;70;20230;-81
2023/08/02 08:26:50;;;;;;;2.67;1.70;;;;;;;19.26;65.50;92017.81;2043302;70;20170;-85
2023/08/02 08:29:16;;;;;;;2.80;2.10;;;;;;;18.68;66.01;92021.69;2041559;70;20146;-86
2023/08/02 08:31:41;;;;;;;2.92;2.22;;;;;;;19.25;64.91;92025.66;2041823;70;20147;-86
2023/08/02 08:34:07;;;;;;;8.70;1.85;;;;;;;19.33;63.79;92022.19;2041699;70;20152;-84
2023/08/02 08:36:33;;;;;;;3.28;1.90;;;;;;;19.61;63.74;92022.00;2041161;70;20207;-87
2023/08/02 08:38:59;;;;;;;3.47;1.70;;;;;;;19.78;63.78;92008.69;2047230;70;20143;-84
2023/08/02 08:41:24;;;;;;;3.88;1.88;;;;;;;19.45;62.89;92013.84;2048197;70;20209;-85
2023/08/02 08:43:50;;;;;;;4.32;2.92;;;;;;;19.29;62.98;92010.75;2048067;70;20147;-85
2023/08/02 08:46:17;;;;;;;6.57;2.90;;;;;;;19.27;63.39;92011.41;2048208;70;20496;-85
2023/08/02 08:48:43;;;;;;;5.93;3.28;;;;;;;19.18;65.36;92006.97;2048237;70;20252;-86
2023/08/02 08:51:10;;;;;;;6.20;2.63;;;;;;;19.26;63.56;91992.13;2048253;70;20158;-85
2023/08/02 08:53:40;;;;;;;4.30;2.40;;;;;;;19.48;64.28;91998.22;2048141;70;20218;-85
2023/08/02 08:56:05;;;;;;;3.58;2.20;;;;;;;19.64;62.35;91994.19;2048146;70;20237;-84
2023/08/02 08:58:32;;;;;;;3.67;1.80;;;;;;;19.45;61.99;92008.16;2048161;70;20613;-83
2023/08/02 09:00:58;;;;;;;3.53;1.80;;;;;;;19.49;61.33;91991.09;2048173;70;20167;-86
2023/08/02 09:03:25;;;;;;;3.10;1.60;;;;;;;19.78;60.10;91998.00;2048236;70;20205;-85
2023/08/02 09:05:51;;;;;;;2.55;2.03;;;;;;;19.59;60.98;91992.66;2048241;70;20209;-86
2023/08/02 09:08:17;;;;;;;2.83;1.67;;;;;;;19.51;60.53;91993.97;2048087;70;20154;-85
2023/08/02 09:10:43;;;;;;;2.65;1.80;;;;;;;19.92;60.25;92000.34;2044821;70;20157;-86
2023/08/02 09:13:25;;;;;;;3.15;1.50;;;;;;;20.03;59.14;91995.53;2047942;70;20162;-84
2023/08/02 09:16:08;;;;;;;2.20;1.73;;;;;;;19.82;58.90;91997.34;2048341;70;20154;-85
2023/08/02 09:18:38;;;;;;;3.90;2.00;;;;;;;19.94;58.60;91997.53;2048052;70;20147;-86
2023/08/02 09:21:05;;;;;;;5.22;1.80;;;;;;;19.89;64.16;91993.19;2048154;70;20197;-85
2023/08/02 09:23:32;;;;;;;2.72;1.70;;;;;;;19.93;63.82;91993.25;2048080;70;20143;-85
2023/08/02 09:26:14;;;;;;;3.70;1.80;;;;;;;20.02;64.89;91985.50;2044862;70;20126;-85
2023/08/02 09:28:41;;;;;;;3.33;1.67;;;;;;;19.98;65.90;91985.47;2047929;70;20173;-85
2023/08/02 09:31:19;;;;;;;3.13;2.10;;;;;;;20.18;63.22;91988.59;2048178;70;20241;-84
2023/08/02 09:33:49;;;;;;;2.75;1.70;;;;;;;20.42;65.72;91978.91;2047529;70;20198;-85
2023/08/02 09:36:27;;;;;;;7.53;2.08;;;;;;;20.67;64.85;91971.38;2046567;70;20933;-84
2023/08/02 09:39:03;;;;;;;2.65;1.90;;;;;;;20.62;62.93;91970.63;2043173;70;20542;-86
2023/08/02 09:41:30;;;;;;;4.15;2.38;;;;;;;20.92;59.49;91973.09;2046599;70;20163;-85
2023/08/02 09:43:56;;;;;;;7.75;2.28;;;;;;;21.23;62.11;91974.13;2046355;70;20176;-86
2023/08/02 09:46:29;;;;;;;3.30;1.80;;;;;;;21.39;60.72;91967.84;2046434;70;20146;-85
2023/08/02 09:48:59;;;;;;;2.88;2.10;;;;;;;22.03;59.88;91957.59;2046741;70;20190;-85
2023/08/02 09:51:41;;;;;;;4.60;2.05;;;;;;;21.99;56.41;91943.25;2047670;70;20177;-84
2023/08/02 09:54:08;;;;;;;2.85;2.17;;;;;;;21.61;58.23;91952.28;2048018;70;20157;-84
2023/08/02 09:56:36;;;;;;;4.50;2.20;;;;;;;21.48;58.55;91940.72;2048129;70;20139;-83
2023/08/02 09:59:03;;;;;;;5.45;2.20;;;;;;;21.56;58.20;91925.78;2047811;70;20181;-84
2023/08/02 10:01:30;;;;;;;4.28;2.00;;;;;;;21.57;59.81;91924.34;2048170;70;20170;-84
2023/08/02 10:03:59;;;;;;;3.22;2.05;;;;;;;22.01;58.78;91926.09;2047898;70;20138;-84
2023/08/02 10:06:33;;;;;;;2.58;2.15;;;;;;;22.07;56.17;91931.84;2047918;70;20157;-85
2023/08/02 10:09:04;;;;;;;2.47;1.95;;;;;;;22.10;54.12;91906.78;2047928;70;20748;-84
2023/08/02 10:11:34;;;;;;;5.50;2.60;;;;;;;22.14;53.92;91906.84;2044799;70;20240;-84
2023/08/02 10:14:01;;;;;;;10.13;2.28;;;;;;;23.36;53.52;91918.00;2047895;70;20157;-85
2023/08/02 10:16:27;;;;;;;3.28;2.50;;;;;;;24.06;51.94;91914.41;2047983;70;20159;-86
2023/08/02 10:18:54;;;;;;;3.92;2.20;;;;;;;23.63;52.06;91896.44;2045387;70;20223;-85
2023/08/02 10:21:21;;;;;;;4.65;2.65;;;;;;;23.62;49.99;91895.03;2044646;70;20593;-84
2023/08/02 10:23:47;;;;;;;3.92;2.00;;;;;;;25.03;48.97;91883.13;2044780;70;20693;-84
2023/08/02 10:26:13;;;;;;;2.65;1.80;;;;;;;25.53;45.93;91873.44;2045055;70;20154;-84
2023/08/02 10:28:40;;;;;;;3.50;1.90;;;;;;;25.44;45.78;91866.31;2044899;70;20268;-85
2023/08/02 10:31:08;;;;;;;6.80;1.70;;;;;;;26.34;45.77;91854.69;2045028;70;20174;-86
2023/08/02 10:33:34;;;;;;;3.22;1.88;;;;;;;26.62;44.52;91852.94;2045140;70;20593;-85
2023/08/02 10:36:05;;;;;;;2.60;1.50;;;;;;;27.77;41.07;91841.19;2045083;70;20171;-85
2023/08/02 10:38:40;;;;;;;1.92;1.63;;;;;;;28.65;40.59;91845.34;2045089;70;20145;-86
2023/08/02 10:41:08;;;;;;;4.95;1.85;;;;;;;29.89;39.92;91844.78;2045031;70;20135;-86
2023/08/02 10:43:54;;;;;;;4.13;1.45;;;;;;;28.76;40.96;91832.09;2044980;70;20281;-85
2023/08/02 10:46:27;;;;;;;2.20;1.73;;;;;;;31.43;35.63;91850.00;2045020;70;20170;-86
2023/08/02 10:49:13;;;;;;;2.00;1.70;;;;;;;32.18;35.46;91850.53;2045181;70;20146;-86
2023/08/02 10:51:38;;;;;;;2.25;1.70;;;;;;;33.47;32.45;91848.88;2044992;70;20143;-85
2023/08/02 10:54:15;;;;;;;1.92;1.73;;;;;;;32.32;32.84;91835.47;2044801;70;20174;-85
2023/08/02 10:56:53;;;;;;;2.33;1.63;;;;;;;32.65;32.30;91837.25;2044617;70;20585;-83
2023/08/02 10:59:22;;;;;;;2.35;1.60;;;;;;;34.42;29.85;91829.69;2044740;70;20182;-88
2023/08/02 11:01:59;;;;;;;2.78;1.67;;;;;;;33.03;30.68;91825.72;2044957;70;20150;-83
2023/08/02 11:04:25;;;;;;;3.53;1.70;;;;;;;35.78;28.43;91816.28;2041693;70;20178;-84
2023/08/02 11:06:51;;;;;;;3.45;1.55;;;;;;;37.99;26.36;91818.03;2044952;70;20292;-83
2023/08/02 11:09:17;;;;;;;2.80;1.75;;;;;;;36.22;26.57;91798.78;2044971;70;20636;-81
2023/08/02 11:11:43;;;;;;;2.67;1.60;;;;;;;37.06;25.79;91782.75;2044881;70;20175;-80
2023/08/02 11:14:09;;;;;;;1.88;1.50;;;;;;;36.18;27.71;91780.69;2044806;70;20165;-83
2023/08/02 11:16:41;;;;;;;2.85;1.45;;;;;;;38.46;25.08;91783.00;2041649;70;20660;-83
2023/08/02 11:19:11;;;;;;;3.60;1.50;;;;;;;37.24;25.85;91767.09;2044970;70;20161;-83
2023/08/02 11:21:51;;;;;;;2.30;1.60;;;;;;;36.32;27.16;91760.16;2044961;70;20254;-83
2023/08/02 11:24:16;;;;;;;2.30;1.50;;;;;;;40.72;23.64;91767.31;2044793;70;20139;-83
2023/08/02 11:26:42;;;;;;;1.90;1.40;;;;;;;42.45;23.50;91760.91;2045005;70;20182;-83
2023/08/02 11:29:08;;;;;;;2.95;1.40;;;;;;;42.61;22.88;91753.75;2044762;70;20203;-83
2023/08/02 11:31:34;;;;;;;1.67;1.30;;;;;;;44.44;19.56;91755.63;2044684;70;20143;-83
2023/08/02 11:34:01;;;;;;;2.38;1.60;;;;;;;44.02;20.47;91742.75;2044571;70;20150;-82